sensor_id;sensor_type;location;lat;lon;timestamp;pressure;altitude;pressure_sealevel;temperature;humidity
40788;BME280;26497;52.494;7.546;2022-10-16T00:01:56;100351.66;;;16.32;69.46
40788;BME280;26497;52.494;7.546;2022-10-16T00:04:23;100357.00;;;16.30;68.98
40788;BME280;26497;52.494;7.546;2022-10-16T00:06:50;100365.91;;;16.29;68.43
40788;BME280;26497;52.494;7.546;2022-10-16T00:09:19;100356.25;;;16.27;67.90
40788;BME280;26497;52.494;7.546;2022-10-16T00:11:46;100359.25;;;16.14;67.86
40788;BME280;26497;52.494;7.546;2022-10-16T00:14:14;100364.84;;;16.03;67.49
40788;BME280;26497;52.494;7.546;2022-10-16T00:16:42;100366.94;;;15.92;68.27
40788;BME280;26497;52.494;7.546;2022-10-16T00:19:10;100366.28;;;15.84;68.52
40788;BME280;26497;52.494;7.546;2022-10-16T00:21:38;100369.00;;;15.81;68.74
40788;BME280;26497;52.494;7.546;2022-10-16T00:24:08;100355.81;;;15.77;69.00
40788;BME280;26497;52.494;7.546;2022-10-16T00:26:38;100352.91;;;15.85;68.41
40788;BME280;26497;52.494;7.546;2022-10-16T00:29:07;100359.94;;;15.89;67.73
40788;BME280;26497;52.494;7.546;2022-10-16T00:31:35;100368.13;;;15.80;67.55
40788;BME280;26497;52.494;7.546;2022-10-16T00:34:02;100365.69;;;15.72;68.10
40788;BME280;26497;52.494;7.546;2022-10-16T00:36:29;100366.69;;;15.67;67.33
40788;BME280;26497;52.494;7.546;2022-10-16T00:38:58;100359.81;;;15.59;67.31
40788;BME280;26497;52.494;7.546;2022-10-16T00:41:26;100355.75;;;15.44;68.43
40788;BME280;26497;52.494;7.546;2022-10-16T00:43:57;100349.56;;;15.44;69.51
40788;BME280;26497;52.494;7.546;2022-10-16T00:46:27;100350.38;;;15.47;70.32
40788;BME280;26497;52.494;7.546;2022-10-16T00:49:00;100361.09;;;15.44;71.65
40788;BME280;26497;52.494;7.546;2022-10-16T00:51:33;100372.41;;;15.51;72.10
40788;BME280;26497;52.494;7.546;2022-10-16T00:54:03;100362.09;;;15.39;73.63
40788;BME280;26497;52.494;7.546;2022-10-16T00:56:32;100355.75;;;15.44;74.13
40788;BME280;26497;52.494;7.546;2022-10-16T00:59:02;100356.53;;;15.48;74.36
40788;BME280;26497;52.494;7.546;2022-10-16T01:01:30;100352.06;;;15.50;74.56
40788;BME280;26497;52.494;7.546;2022-10-16T01:03:57;100350.88;;;15.62;74.15
40788;BME280;26497;52.494;7.546;2022-10-16T01:06:30;100351.97;;;15.53;74.40
40788;BME280;26497;52.494;7.546;2022-10-16T01:09:11;100353.53;;;15.62;74.21
40788;BME280;26497;52.494;7.546;2022-10-16T01:11:49;100349.97;;;15.63;74.59
40788;BME280;26497;52.494;7.546;2022-10-16T01:14:26;100351.63;;;15.67;74.09
40788;BME280;26497;52.494;7.546;2022-10-16T01:17:03;100347.16;;;15.69;73.36
40788;BME280;26497;52.494;7.546;2022-10-16T01:20:03;100342.22;;;15.90;72.59
40788;BME280;26497;52.494;7.546;2022-10-16T01:22:42;100349.56;;;15.78;73.57
40788;BME280;26497;52.494;7.546;2022-10-16T01:25:22;100346.28;;;16.02;73.07
40788;BME280;26497;52.494;7.546;2022-10-16T01:27:53;100352.72;;;15.93;72.83
40788;BME280;26497;52.494;7.546;2022-10-16T01:30:23;100353.13;;;15.77;73.72
40788;BME280;26497;52.494;7.546;2022-10-16T01:32:56;100347.47;;;15.91;73.52
40788;BME280;26497;52.494;7.546;2022-10-16T01:35:29;100364.25;;;15.94;73.08
40788;BME280;26497;52.494;7.546;2022-10-16T01:38:02;100363.16;;;16.01;73.09
40788;BME280;26497;52.494;7.546;2022-10-16T01:40:33;100360.19;;;15.78;74.18
40788;BME280;26497;52.494;7.546;2022-10-16T01:43:06;100356.41;;;15.89;74.04
40788;BME280;26497;52.494;7.546;2022-10-16T01:45:36;100359.28;;;15.80;74.74
40788;BME280;26497;52.494;7.546;2022-10-16T01:48:05;100364.41;;;15.87;73.85
40788;BME280;26497;52.494;7.546;2022-10-16T01:50:39;100363.88;;;15.73;74.52
40788;BME280;26497;52.494;7.546;2022-10-16T01:53:11;100361.31;;;15.70;75.30
40788;BME280;26497;52.494;7.546;2022-10-16T01:55:44;100356.66;;;15.78;75.15
40788;BME280;26497;52.494;7.546;2022-10-16T01:58:14;100341.16;;;15.96;74.20
40788;BME280;26497;52.494;7.546;2022-10-16T02:00:45;100344.50;;;16.02;73.90
40788;BME280;26497;52.494;7.546;2022-10-16T02:03:17;100343.97;;;15.89;74.86
40788;BME280;26497;52.494;7.546;2022-10-16T02:05:46;100341.06;;;15.99;74.57
40788;BME280;26497;52.494;7.546;2022-10-16T02:08:14;100339.31;;;15.98;74.35
40788;BME280;26497;52.494;7.546;2022-10-16T02:10:41;100328.53;;;16.02;74.36
40788;BME280;26497;52.494;7.546;2022-10-16T02:13:12;100345.81;;;16.19;74.06
40788;BME280;26497;52.494;7.546;2022-10-16T02:15:41;100345.78;;;16.20;73.73
40788;BME280;26497;52.494;7.546;2022-10-16T02:18:09;100350.34;;;16.15;74.00
40788;BME280;26497;52.494;7.546;2022-10-16T02:20:44;100353.00;;;16.15;74.30
40788;BME280;26497;52.494;7.546;2022-10-16T02:23:18;100353.75;;;16.20;74.64
40788;BME280;26497;52.494;7.546;2022-10-16T02:25:47;100352.09;;;16.16;75.18
40788;BME280;26497;52.494;7.546;2022-10-16T02:28:19;100354.41;;;16.29;74.58
40788;BME280;26497;52.494;7.546;2022-10-16T02:30:54;100346.94;;;16.10;75.94
40788;BME280;26497;52.494;7.546;2022-10-16T02:33:24;100346.50;;;15.94;77.17
40788;BME280;26497;52.494;7.546;2022-10-16T02:35:53;100341.84;;;16.02;77.03
40788;BME280;26497;52.494;7.546;2022-10-16T02:38:21;100351.94;;;16.23;76.20
40788;BME280;26497;52.494;7.546;2022-10-16T02:40:49;100353.13;;;16.11;77.23
40788;BME280;26497;52.494;7.546;2022-10-16T02:43:16;100357.47;;;16.45;75.84
40788;BME280;26497;52.494;7.546;2022-10-16T02:45:44;100347.72;;;16.45;75.54
40788;BME280;26497;52.494;7.546;2022-10-16T02:48:12;100346.59;;;16.23;77.33
40788;BME280;26497;52.494;7.546;2022-10-16T02:50:39;100338.53;;;16.26;77.60
40788;BME280;26497;52.494;7.546;2022-10-16T02:53:06;100343.84;;;16.26;77.49
40788;BME280;26497;52.494;7.546;2022-10-16T02:55:33;100338.03;;;16.43;76.86
40788;BME280;26497;52.494;7.546;2022-10-16T02:58:00;100348.19;;;16.28;77.98
40788;BME280;26497;52.494;7.546;2022-10-16T03:00:27;100355.41;;;16.25;78.29
40788;BME280;26497;52.494;7.546;2022-10-16T03:02:54;100343.69;;;16.30;78.19
40788;BME280;26497;52.494;7.546;2022-10-16T03:05:22;100347.53;;;16.51;76.98
40788;BME280;26497;52.494;7.546;2022-10-16T03:07:49;100352.63;;;16.59;76.75
40788;BME280;26497;52.494;7.546;2022-10-16T03:10:16;100357.19;;;16.84;75.50
40788;BME280;26497;52.494;7.546;2022-10-16T03:12:43;100359.78;;;16.86;75.47
40788;BME280;26497;52.494;7.546;2022-10-16T03:15:10;100362.78;;;16.75;75.88
40788;BME280;26497;52.494;7.546;2022-10-16T03:17:37;100352.97;;;16.77;75.72
40788;BME280;26497;52.494;7.546;2022-10-16T03:20:05;100355.75;;;16.72;75.63
40788;BME280;26497;52.494;7.546;2022-10-16T03:22:34;100355.22;;;16.61;76.12
40788;BME280;26497;52.494;7.546;2022-10-16T03:25:01;100355.31;;;16.58;76.59
40788;BME280;26497;52.494;7.546;2022-10-16T03:27:28;100358.38;;;16.45;77.51
40788;BME280;26497;52.494;7.546;2022-10-16T03:29:55;100350.44;;;16.72;76.27
40788;BME280;26497;52.494;7.546;2022-10-16T03:32:22;100356.59;;;16.74;76.39
40788;BME280;26497;52.494;7.546;2022-10-16T03:34:50;100361.00;;;16.75;76.03
40788;BME280;26497;52.494;7.546;2022-10-16T03:37:20;100375.09;;;16.79;75.82
40788;BME280;26497;52.494;7.546;2022-10-16T03:39:48;100385.91;;;16.44;77.24
40788;BME280;26497;52.494;7.546;2022-10-16T03:42:15;100379.06;;;16.65;76.64
40788;BME280;26497;52.494;7.546;2022-10-16T03:44:42;100378.91;;;16.70;75.48
40788;BME280;26497;52.494;7.546;2022-10-16T03:47:09;100386.34;;;16.59;76.70
40788;BME280;26497;52.494;7.546;2022-10-16T03:49:36;100379.97;;;16.93;75.35
40788;BME280;26497;52.494;7.546;2022-10-16T03:52:04;100372.81;;;16.95;75.11
40788;BME280;26497;52.494;7.546;2022-10-16T03:54:31;100371.41;;;17.13;74.52
40788;BME280;26497;52.494;7.546;2022-10-16T03:56:59;100375.47;;;16.97;74.91
40788;BME280;26497;52.494;7.546;2022-10-16T03:59:26;100377.22;;;16.96;75.27
40788;BME280;26497;52.494;7.546;2022-10-16T04:01:53;100375.13;;;17.07;74.89
40788;BME280;26497;52.494;7.546;2022-10-16T04:04:20;100370.31;;;16.90;75.39
40788;BME280;26497;52.494;7.546;2022-10-16T04:06:47;100374.72;;;16.91;75.41
40788;BME280;26497;52.494;7.546;2022-10-16T04:09:14;100360.25;;;17.00;75.11
40788;BME280;26497;52.494;7.546;2022-10-16T04:11:41;100363.53;;;17.08;74.52
40788;BME280;26497;52.494;7.546;2022-10-16T04:14:09;100370.91;;;16.70;75.93
40788;BME280;26497;52.494;7.546;2022-10-16T04:16:36;100377.59;;;16.84;75.33
40788;BME280;26497;52.494;7.546;2022-10-16T04:19:03;100379.06;;;16.94;74.65
40788;BME280;26497;52.494;7.546;2022-10-16T04:21:30;100385.97;;;17.01;74.20
40788;BME280;26497;52.494;7.546;2022-10-16T04:23:57;100388.50;;;17.06;73.81
40788;BME280;26497;52.494;7.546;2022-10-16T04:26:24;100392.31;;;16.97;73.95
40788;BME280;26497;52.494;7.546;2022-10-16T04:28:51;100393.09;;;17.01;74.01
40788;BME280;26497;52.494;7.546;2022-10-16T04:31:19;100396.88;;;16.92;74.42
40788;BME280;26497;52.494;7.546;2022-10-16T04:33:46;100397.69;;;16.94;74.16
40788;BME280;26497;52.494;7.546;2022-10-16T04:36:13;100397.97;;;16.86;74.17
40788;BME280;26497;52.494;7.546;2022-10-16T04:38:40;100401.63;;;16.82;73.89
40788;BME280;26497;52.494;7.546;2022-10-16T04:41:08;100393.81;;;16.76;74.23
40788;BME280;26497;52.494;7.546;2022-10-16T04:43:35;100393.50;;;16.87;73.57
40788;BME280;26497;52.494;7.546;2022-10-16T04:46:02;100393.56;;;16.84;73.54
40788;BME280;26497;52.494;7.546;2022-10-16T04:48:32;100410.09;;;16.66;74.79
40788;BME280;26497;52.494;7.546;2022-10-16T04:50:59;100419.66;;;16.72;75.19
40788;BME280;26497;52.494;7.546;2022-10-16T04:53:26;100422.03;;;16.81;75.30
40788;BME280;26497;52.494;7.546;2022-10-16T04:55:53;100424.72;;;16.81;75.10
40788;BME280;26497;52.494;7.546;2022-10-16T04:58:21;100424.50;;;16.89;74.78
40788;BME280;26497;52.494;7.546;2022-10-16T05:00:54;100433.41;;;16.88;74.62
40788;BME280;26497;52.494;7.546;2022-10-16T05:03:21;100433.50;;;16.85;74.97
40788;BME280;26497;52.494;7.546;2022-10-16T05:05:49;100430.06;;;17.12;73.82
40788;BME280;26497;52.494;7.546;2022-10-16T05:08:17;100435.53;;;17.07;73.89
40788;BME280;26497;52.494;7.546;2022-10-16T05:10:44;100434.38;;;17.16;73.39
40788;BME280;26497;52.494;7.546;2022-10-16T05:13:12;100434.16;;;17.22;72.97
40788;BME280;26497;52.494;7.546;2022-10-16T05:15:39;100438.47;;;17.26;73.03
40788;BME280;26497;52.494;7.546;2022-10-16T05:18:06;100440.22;;;17.27;72.80
40788;BME280;26497;52.494;7.546;2022-10-16T05:20:33;100438.22;;;17.05;73.51
40788;BME280;26497;52.494;7.546;2022-10-16T05:23:01;100446.84;;;17.15;72.92
40788;BME280;26497;52.494;7.546;2022-10-16T05:25:28;100450.78;;;17.02;72.84
40788;BME280;26497;52.494;7.546;2022-10-16T05:27:55;100446.00;;;16.81;74.18
40788;BME280;26497;52.494;7.546;2022-10-16T05:30:22;100451.53;;;17.07;72.77
40788;BME280;26497;52.494;7.546;2022-10-16T05:32:50;100441.88;;;17.03;72.47
40788;BME280;26497;52.494;7.546;2022-10-16T05:35:18;100456.31;;;16.94;73.15
40788;BME280;26497;52.494;7.546;2022-10-16T05:37:45;100462.63;;;16.90;73.64
40788;BME280;26497;52.494;7.546;2022-10-16T05:40:15;100458.69;;;17.05;72.83
40788;BME280;26497;52.494;7.546;2022-10-16T05:42:42;100463.63;;;16.87;73.65
40788;BME280;26497;52.494;7.546;2022-10-16T05:45:10;100473.25;;;16.91;73.94
40788;BME280;26497;52.494;7.546;2022-10-16T05:47:38;100470.50;;;16.94;73.67
40788;BME280;26497;52.494;7.546;2022-10-16T05:50:06;100480.03;;;17.03;73.28
40788;BME280;26497;52.494;7.546;2022-10-16T05:52:33;100488.66;;;17.12;72.90
40788;BME280;26497;52.494;7.546;2022-10-16T05:55:00;100484.88;;;17.20;72.33
40788;BME280;26497;52.494;7.546;2022-10-16T05:57:28;100493.81;;;17.18;72.29
40788;BME280;26497;52.494;7.546;2022-10-16T05:59:55;100495.72;;;17.14;72.17
40788;BME280;26497;52.494;7.546;2022-10-16T06:02:22;100494.09;;;17.08;72.31
40788;BME280;26497;52.494;7.546;2022-10-16T06:04:51;100490.59;;;17.06;72.29
40788;BME280;26497;52.494;7.546;2022-10-16T06:07:19;100489.84;;;17.01;72.37
40788;BME280;26497;52.494;7.546;2022-10-16T06:09:48;100497.41;;;16.85;73.17
40788;BME280;26497;52.494;7.546;2022-10-16T06:12:16;100492.53;;;17.01;72.34
40788;BME280;26497;52.494;7.546;2022-10-16T06:14:44;100498.41;;;17.13;71.67
40788;BME280;26497;52.494;7.546;2022-10-16T06:17:12;100501.66;;;16.91;72.45
40788;BME280;26497;52.494;7.546;2022-10-16T06:19:39;100498.19;;;16.89;72.92
40788;BME280;26497;52.494;7.546;2022-10-16T06:22:06;100508.09;;;16.84;73.32
40788;BME280;26497;52.494;7.546;2022-10-16T06:24:33;100507.69;;;16.99;72.78
40788;BME280;26497;52.494;7.546;2022-10-16T06:27:00;100517.56;;;16.94;72.94
40788;BME280;26497;52.494;7.546;2022-10-16T06:29:27;100519.47;;;16.89;73.43
40788;BME280;26497;52.494;7.546;2022-10-16T06:31:56;100528.03;;;17.02;72.75
40788;BME280;26497;52.494;7.546;2022-10-16T06:34:23;100531.94;;;17.20;72.02
40788;BME280;26497;52.494;7.546;2022-10-16T06:36:50;100542.50;;;17.23;72.12
40788;BME280;26497;52.494;7.546;2022-10-16T06:39:17;100550.31;;;17.29;71.85
40788;BME280;26497;52.494;7.546;2022-10-16T06:41:44;100548.69;;;17.23;72.41
40788;BME280;26497;52.494;7.546;2022-10-16T06:44:10;100562.66;;;17.62;72.85
40788;BME280;26497;52.494;7.546;2022-10-16T06:46:37;100563.53;;;17.89;72.21
40788;BME280;26497;52.494;7.546;2022-10-16T06:49:06;100563.19;;;18.02;70.86
40788;BME280;26497;52.494;7.546;2022-10-16T06:51:33;100567.97;;;17.90;70.10
40788;BME280;26497;52.494;7.546;2022-10-16T06:54:01;100560.28;;;18.09;69.67
40788;BME280;26497;52.494;7.546;2022-10-16T06:56:29;100571.19;;;18.02;69.32
40788;BME280;26497;52.494;7.546;2022-10-16T06:58:57;100580.50;;;18.17;69.57
40788;BME280;26497;52.494;7.546;2022-10-16T07:01:24;100580.84;;;18.33;69.51
40788;BME280;26497;52.494;7.546;2022-10-16T07:03:52;100585.44;;;18.54;68.90
40788;BME280;26497;52.494;7.546;2022-10-16T07:06:23;100594.06;;;18.63;67.59
40788;BME280;26497;52.494;7.546;2022-10-16T07:08:50;100601.28;;;19.11;66.41
40788;BME280;26497;52.494;7.546;2022-10-16T07:11:19;100602.28;;;19.31;64.83
40788;BME280;26497;52.494;7.546;2022-10-16T07:13:47;100604.34;;;19.48;64.52
40788;BME280;26497;52.494;7.546;2022-10-16T07:16:17;100606.47;;;19.62;63.71
40788;BME280;26497;52.494;7.546;2022-10-16T07:18:45;100609.84;;;19.67;62.99
40788;BME280;26497;52.494;7.546;2022-10-16T07:21:16;100608.09;;;19.66;63.31
40788;BME280;26497;52.494;7.546;2022-10-16T07:23:45;100624.16;;;19.88;63.41
40788;BME280;26497;52.494;7.546;2022-10-16T07:26:12;100625.19;;;20.08;62.01
40788;BME280;26497;52.494;7.546;2022-10-16T07:28:39;100631.72;;;20.23;62.58
40788;BME280;26497;52.494;7.546;2022-10-16T07:31:08;100630.53;;;20.30;61.39
40788;BME280;26497;52.494;7.546;2022-10-16T07:33:38;100640.50;;;20.49;59.77
40788;BME280;26497;52.494;7.546;2022-10-16T07:36:05;100628.72;;;19.86;61.35
40788;BME280;26497;52.494;7.546;2022-10-16T07:38:33;100628.16;;;19.78;62.54
40788;BME280;26497;52.494;7.546;2022-10-16T07:41:04;100636.53;;;20.15;61.72
40788;BME280;26497;52.494;7.546;2022-10-16T07:43:32;100636.28;;;20.21;61.62
40788;BME280;26497;52.494;7.546;2022-10-16T07:46:00;100644.81;;;20.09;62.04
40788;BME280;26497;52.494;7.546;2022-10-16T07:48:29;100643.41;;;20.43;60.90
40788;BME280;26497;52.494;7.546;2022-10-16T07:50:57;100651.41;;;20.22;61.18
40788;BME280;26497;52.494;7.546;2022-10-16T07:53:25;100653.25;;;20.42;61.01
40788;BME280;26497;52.494;7.546;2022-10-16T07:55:56;100654.31;;;20.38;60.89
40788;BME280;26497;52.494;7.546;2022-10-16T07:58:25;100662.25;;;20.62;60.10
40788;BME280;26497;52.494;7.546;2022-10-16T08:00:52;100662.34;;;20.81;59.27
40788;BME280;26497;52.494;7.546;2022-10-16T08:03:19;100663.03;;;21.07;58.82
40788;BME280;26497;52.494;7.546;2022-10-16T08:05:46;100666.53;;;21.28;58.00
40788;BME280;26497;52.494;7.546;2022-10-16T08:08:15;100672.94;;;21.05;57.13
40788;BME280;26497;52.494;7.546;2022-10-16T08:10:42;100670.00;;;20.90;58.40
40788;BME280;26497;52.494;7.546;2022-10-16T08:13:10;100677.31;;;20.65;58.76
40788;BME280;26497;52.494;7.546;2022-10-16T08:15:38;100673.81;;;20.62;59.06
40788;BME280;26497;52.494;7.546;2022-10-16T08:18:05;100680.38;;;20.35;59.67
40788;BME280;26497;52.494;7.546;2022-10-16T08:20:33;100685.59;;;20.38;59.76
40788;BME280;26497;52.494;7.546;2022-10-16T08:23:00;100690.13;;;20.13;60.73
40788;BME280;26497;52.494;7.546;2022-10-16T08:25:28;100696.72;;;20.04;60.54
40788;BME280;26497;52.494;7.546;2022-10-16T08:27:55;100702.44;;;19.95;61.11
40788;BME280;26497;52.494;7.546;2022-10-16T08:30:23;100717.69;;;19.93;61.42
40788;BME280;26497;52.494;7.546;2022-10-16T08:32:52;100719.53;;;20.15;61.89
40788;BME280;26497;52.494;7.546;2022-10-16T08:35:19;100711.88;;;20.50;59.80
40788;BME280;26497;52.494;7.546;2022-10-16T08:37:46;100710.97;;;20.94;59.53
40788;BME280;26497;52.494;7.546;2022-10-16T08:40:19;100721.22;;;21.45;58.34
40788;BME280;26497;52.494;7.546;2022-10-16T08:43:18;100731.44;;;21.36;57.24
40788;BME280;26497;52.494;7.546;2022-10-16T08:46:15;100726.94;;;21.58;55.36
40788;BME280;26497;52.494;7.546;2022-10-16T08:48:50;100729.16;;;21.88;55.29
40788;BME280;26497;52.494;7.546;2022-10-16T08:51:22;100721.19;;;21.86;54.94
40788;BME280;26497;52.494;7.546;2022-10-16T08:53:53;100722.47;;;22.16;54.70
40788;BME280;26497;52.494;7.546;2022-10-16T08:56:22;100734.78;;;22.58;52.69
40788;BME280;26497;52.494;7.546;2022-10-16T08:58:51;100725.22;;;22.52;52.98
40788;BME280;26497;52.494;7.546;2022-10-16T09:01:21;100735.50;;;22.62;52.38
40788;BME280;26497;52.494;7.546;2022-10-16T09:04:13;100742.28;;;23.06;51.46
40788;BME280;26497;52.494;7.546;2022-10-16T09:06:52;100741.94;;;23.30;50.03
40788;BME280;26497;52.494;7.546;2022-10-16T09:09:47;100749.47;;;23.23;49.83
40788;BME280;26497;52.494;7.546;2022-10-16T09:12:20;100753.56;;;23.81;49.94
40788;BME280;26497;52.494;7.546;2022-10-16T09:14:58;100750.97;;;23.96;47.80
40788;BME280;26497;52.494;7.546;2022-10-16T09:17:37;100760.81;;;24.61;46.33
40788;BME280;26497;52.494;7.546;2022-10-16T09:20:26;100756.72;;;24.70;47.28
40788;BME280;26497;52.494;7.546;2022-10-16T09:23:12;100753.97;;;24.55;46.50
40788;BME280;26497;52.494;7.546;2022-10-16T09:25:43;100755.16;;;24.66;45.57
40788;BME280;26497;52.494;7.546;2022-10-16T09:28:11;100753.63;;;24.13;47.06
40788;BME280;26497;52.494;7.546;2022-10-16T09:30:38;100759.06;;;23.96;47.45
40788;BME280;26497;52.494;7.546;2022-10-16T09:33:07;100756.41;;;23.78;47.40
40788;BME280;26497;52.494;7.546;2022-10-16T09:35:39;100761.09;;;23.41;47.95
40788;BME280;26497;52.494;7.546;2022-10-16T09:38:07;100757.81;;;23.85;46.81
40788;BME280;26497;52.494;7.546;2022-10-16T09:40:36;100750.81;;;23.32;48.04
40788;BME280;26497;52.494;7.546;2022-10-16T09:43:19;100750.97;;;23.29;48.58
40788;BME280;26497;52.494;7.546;2022-10-16T09:45:55;100763.56;;;24.29;46.42
40788;BME280;26497;52.494;7.546;2022-10-16T09:48:35;100768.50;;;24.99;44.34
40788;BME280;26497;52.494;7.546;2022-10-16T09:51:15;100775.28;;;25.07;44.29
40788;BME280;26497;52.494;7.546;2022-10-16T09:53:46;100770.28;;;24.84;44.19
40788;BME280;26497;52.494;7.546;2022-10-16T09:56:23;100781.16;;;24.99;44.35
40788;BME280;26497;52.494;7.546;2022-10-16T09:58:51;100783.50;;;25.50;43.56
40788;BME280;26497;52.494;7.546;2022-10-16T10:01:19;100779.06;;;26.22;41.34
40788;BME280;26497;52.494;7.546;2022-10-16T10:03:47;100785.81;;;26.56;40.38
40788;BME280;26497;52.494;7.546;2022-10-16T10:06:28;100793.53;;;26.62;40.19
40788;BME280;26497;52.494;7.546;2022-10-16T10:09:04;100793.69;;;26.46;40.66
40788;BME280;26497;52.494;7.546;2022-10-16T10:11:46;100795.47;;;26.18;40.81
40788;BME280;26497;52.494;7.546;2022-10-16T10:14:30;100801.75;;;26.61;40.49
40788;BME280;26497;52.494;7.546;2022-10-16T10:17:14;100811.44;;;26.50;40.55
40788;BME280;26497;52.494;7.546;2022-10-16T10:19:50;100793.00;;;26.85;39.77
40788;BME280;26497;52.494;7.546;2022-10-16T10:22:27;100812.56;;;26.19;40.35
40788;BME280;26497;52.494;7.546;2022-10-16T10:31:08;100813.13;;;26.39;39.56
40788;BME280;26497;52.494;7.546;2022-10-16T10:33:44;100811.69;;;26.18;40.36
40788;BME280;26497;52.494;7.546;2022-10-16T10:36:29;100818.41;;;26.40;39.70
40788;BME280;26497;52.494;7.546;2022-10-16T10:39:00;100812.09;;;26.96;38.92
40788;BME280;26497;52.494;7.546;2022-10-16T10:42:02;100814.91;;;26.80;37.75
40788;BME280;26497;52.494;7.546;2022-10-16T10:44:58;100819.53;;;26.65;39.39
40788;BME280;26497;52.494;7.546;2022-10-16T10:47:40;100815.09;;;27.45;37.76
40788;BME280;26497;52.494;7.546;2022-10-16T10:50:23;100824.91;;;27.20;36.01
40788;BME280;26497;52.494;7.546;2022-10-16T10:52:59;100814.50;;;26.59;36.51
40788;BME280;26497;52.494;7.546;2022-10-16T10:55:40;100832.84;;;26.26;36.92
40788;BME280;26497;52.494;7.546;2022-10-16T10:59:03;100831.47;;;25.90;38.48
40788;BME280;26497;52.494;7.546;2022-10-16T11:01:41;100838.22;;;25.83;37.42
40788;BME280;26497;52.494;7.546;2022-10-16T11:04:49;100832.72;;;26.28;37.04
40788;BME280;26497;52.494;7.546;2022-10-16T11:07:24;100842.50;;;26.16;37.54
40788;BME280;26497;52.494;7.546;2022-10-16T11:09:56;100844.97;;;26.90;35.51
40788;BME280;26497;52.494;7.546;2022-10-16T11:12:29;100840.94;;;26.41;35.37
40788;BME280;26497;52.494;7.546;2022-10-16T11:15:03;100849.09;;;25.67;37.86
40788;BME280;26497;52.494;7.546;2022-10-16T11:17:38;100856.09;;;25.24;38.43
40788;BME280;26497;52.494;7.546;2022-10-16T11:20:16;100852.72;;;25.05;39.42
40788;BME280;26497;52.494;7.546;2022-10-16T11:22:48;100860.25;;;25.46;39.46
40788;BME280;26497;52.494;7.546;2022-10-16T11:25:21;100854.13;;;26.02;39.18
40788;BME280;26497;52.494;7.546;2022-10-16T11:27:56;100852.59;;;25.83;38.06
40788;BME280;26497;52.494;7.546;2022-10-16T11:30:27;100866.41;;;25.48;37.67
40788;BME280;26497;52.494;7.546;2022-10-16T11:33:05;100860.06;;;25.33;37.89
40788;BME280;26497;52.494;7.546;2022-10-16T11:35:44;100859.69;;;25.55;37.90
40788;BME280;26497;52.494;7.546;2022-10-16T11:38:26;100853.97;;;24.99;37.62
40788;BME280;26497;52.494;7.546;2022-10-16T11:40:59;100859.44;;;24.33;39.67
40788;BME280;26497;52.494;7.546;2022-10-16T11:43:32;100856.13;;;24.92;38.94
40788;BME280;26497;52.494;7.546;2022-10-16T11:46:08;100858.97;;;25.21;38.67
40788;BME280;26497;52.494;7.546;2022-10-16T11:48:45;100864.78;;;25.29;37.92
40788;BME280;26497;52.494;7.546;2022-10-16T11:51:20;100871.56;;;25.37;37.83
40788;BME280;26497;52.494;7.546;2022-10-16T11:53:55;100870.22;;;25.13;37.79
40788;BME280;26497;52.494;7.546;2022-10-16T11:56:24;100871.81;;;25.48;38.14
40788;BME280;26497;52.494;7.546;2022-10-16T11:58:57;100871.34;;;25.56;37.47
40788;BME280;26497;52.494;7.546;2022-10-16T12:01:33;100877.88;;;25.82;36.50
40788;BME280;26497;52.494;7.546;2022-10-16T12:04:19;100889.44;;;26.13;35.41
40788;BME280;26497;52.494;7.546;2022-10-16T12:06:52;100893.09;;;26.70;36.18
40788;BME280;26497;52.494;7.546;2022-10-16T12:09:25;100887.88;;;27.77;34.28
40788;BME280;26497;52.494;7.546;2022-10-16T12:11:53;100902.41;;;28.02;33.19
40788;BME280;26497;52.494;7.546;2022-10-16T12:14:37;100903.78;;;27.56;32.08
40788;BME280;26497;52.494;7.546;2022-10-16T12:17:25;100895.44;;;27.59;33.42
40788;BME280;26497;52.494;7.546;2022-10-16T12:20:01;100900.91;;;28.23;32.48
40788;BME280;26497;52.494;7.546;2022-10-16T12:22:48;100898.72;;;28.16;31.62
40788;BME280;26497;52.494;7.546;2022-10-16T12:25:23;100904.38;;;28.25;32.20
40788;BME280;26497;52.494;7.546;2022-10-16T12:28:02;100894.44;;;27.19;32.85
40788;BME280;26497;52.494;7.546;2022-10-16T12:30:34;100910.50;;;26.66;33.49
40788;BME280;26497;52.494;7.546;2022-10-16T12:33:04;100915.38;;;25.87;34.60
40788;BME280;26497;52.494;7.546;2022-10-16T12:35:34;100913.34;;;25.76;35.31
40788;BME280;26497;52.494;7.546;2022-10-16T12:38:17;100901.19;;;25.69;34.94
40788;BME280;26497;52.494;7.546;2022-10-16T12:40:47;100908.91;;;24.64;36.24
40788;BME280;26497;52.494;7.546;2022-10-16T12:43:35;100910.38;;;25.34;36.82
40788;BME280;26497;52.494;7.546;2022-10-16T12:46:23;100907.06;;;26.20;33.83
40788;BME280;26497;52.494;7.546;2022-10-16T12:48:50;100911.81;;;26.01;34.67
40788;BME280;26497;52.494;7.546;2022-10-16T12:51:24;100906.25;;;26.62;33.23
40788;BME280;26497;52.494;7.546;2022-10-16T12:54:02;100926.31;;;27.29;32.58
40788;BME280;26497;52.494;7.546;2022-10-16T12:56:41;100925.63;;;27.25;33.06
40788;BME280;26497;52.494;7.546;2022-10-16T12:59:22;100926.50;;;27.53;32.20
40788;BME280;26497;52.494;7.546;2022-10-16T13:02:36;100936.56;;;27.51;32.19
40788;BME280;26497;52.494;7.546;2022-10-16T13:05:22;100927.06;;;28.88;30.46
40788;BME280;26497;52.494;7.546;2022-10-16T13:08:04;100928.63;;;29.27;29.24
40788;BME280;26497;52.494;7.546;2022-10-16T13:10:39;100933.78;;;29.79;28.85
40788;BME280;26497;52.494;7.546;2022-10-16T13:13:21;100930.19;;;28.94;28.65
40788;BME280;26497;52.494;7.546;2022-10-16T13:16:04;100935.13;;;28.76;29.60
40788;BME280;26497;52.494;7.546;2022-10-16T13:18:48;100945.34;;;29.34;28.16
40788;BME280;26497;52.494;7.546;2022-10-16T13:21:32;100945.00;;;29.63;28.72